createdAt,value
2023-01-30T00:00:24.164Z,6.50
2023-01-30T00:02:50.586Z,6.00
2023-01-30T00:05:17.848Z,5.50
2023-01-30T00:07:44.312Z,7.00
2023-01-30T00:10:10.681Z,7.00
2023-01-30T00:12:37.049Z,6.67
2023-01-30T00:15:03.473Z,7.50
2023-01-30T00:17:30.709Z,6.00
2023-01-30T00:19:57.193Z,5.00
2023-01-30T00:22:23.625Z,6.67
2023-01-30T00:24:50.029Z,5.33
2023-01-30T00:27:17.320Z,6.00
2023-01-30T00:29:57.616Z,7.50
2023-01-30T00:32:27.905Z,6.00
2023-01-30T00:34:54.286Z,6.00
2023-01-30T00:37:20.617Z,5.33
2023-01-30T00:39:46.955Z,4.33
2023-01-30T00:42:14.213Z,5.50
2023-01-30T00:44:40.577Z,5.00
2023-01-30T00:47:06.951Z,4.67
2023-01-30T00:49:33.364Z,4.67
2023-01-30T00:51:59.688Z,5.00
2023-01-30T00:54:26.075Z,3.33
2023-01-30T00:56:52.483Z,3.67
2023-01-30T00:59:18.824Z,5.00
2023-01-30T01:01:45.251Z,4.67
2023-01-30T01:04:11.657Z,5.33
2023-01-30T01:06:38.038Z,5.00
2023-01-30T01:09:04.405Z,4.33
2023-01-30T01:14:24.706Z,4.67
2023-01-30T01:16:51.194Z,5.00
2023-01-30T01:19:17.593Z,3.67
2023-01-30T01:21:43.946Z,4.33
2023-01-30T01:24:10.309Z,4.33
2023-01-30T01:29:30.484Z,3.33
2023-01-30T01:31:56.990Z,3.33
2023-01-30T01:34:23.406Z,3.33
2023-01-30T01:36:54.471Z,5.00
2023-01-30T01:39:21.091Z,4.67
2023-01-30T01:44:31.337Z,3.33
2023-01-30T01:46:57.660Z,4.00
2023-01-30T01:49:24.099Z,4.67
2023-01-30T01:51:50.432Z,4.00
2023-01-30T01:54:16.796Z,3.33
2023-01-30T01:59:36.887Z,2.33
2023-01-30T02:02:03.330Z,3.67
2023-01-30T02:04:29.759Z,3.33
2023-01-30T02:06:56.108Z,3.00
2023-01-30T02:09:22.515Z,4.00
2023-01-30T02:14:32.855Z,3.33
2023-01-30T02:16:59.199Z,3.00
2023-01-30T02:19:25.586Z,2.00
2023-01-30T02:21:51.938Z,3.00
2023-01-30T02:24:18.294Z,4.00
2023-01-30T02:29:41.195Z,2.33
2023-01-30T02:32:07.561Z,5.00
2023-01-30T02:34:33.914Z,3.00
2023-01-30T02:37:00.286Z,3.33
2023-01-30T02:39:26.640Z,4.00
2023-01-30T02:44:46.777Z,3.00
2023-01-30T02:47:13.177Z,4.67
2023-01-30T02:49:39.522Z,4.33
2023-01-30T02:52:05.902Z,4.00
2023-01-30T02:54:32.281Z,3.67
2023-01-30T02:59:42.393Z,4.33
2023-01-30T03:02:08.813Z,4.00
2023-01-30T03:04:35.241Z,4.00
2023-01-30T03:07:01.590Z,4.00
2023-01-30T03:09:27.942Z,4.67
2023-01-30T03:14:48.045Z,3.00
2023-01-30T03:17:14.415Z,4.00
2023-01-30T03:19:40.771Z,3.00
2023-01-30T03:22:07.151Z,4.00
2023-01-30T03:24:33.494Z,4.00
2023-01-30T03:29:53.438Z,4.00
2023-01-30T03:32:20.044Z,3.67
2023-01-30T03:34:46.377Z,4.00
2023-01-30T03:37:12.731Z,5.00
2023-01-30T03:39:39.076Z,3.00
2023-01-30T03:44:49.348Z,3.00
2023-01-30T03:47:15.676Z,4.00
2023-01-30T03:49:42.025Z,4.00
2023-01-30T03:52:08.451Z,4.00
2023-01-30T03:54:34.806Z,4.00
2023-01-30T03:57:01.189Z,4.00
2023-01-30T03:59:27.550Z,4.00
2023-01-30T04:01:53.878Z,3.00
2023-01-30T04:04:20.282Z,5.00
2023-01-30T04:06:46.612Z,4.00
2023-01-30T04:09:12.967Z,4.00
2023-01-30T04:11:39.337Z,3.00
2023-01-30T04:14:05.705Z,4.00
2023-01-30T04:16:32.115Z,4.00
2023-01-30T04:18:58.513Z,4.00
2023-01-30T04:21:24.904Z,3.33
2023-01-30T04:23:51.240Z,4.33
2023-01-30T04:26:17.673Z,4.00
2023-01-30T04:28:44.051Z,4.67
2023-01-30T04:31:10.420Z,4.00
2023-01-30T04:33:36.770Z,4.00
2023-01-30T04:36:03.141Z,3.00
2023-01-30T04:38:29.652Z,3.67
2023-01-30T04:40:55.977Z,5.00
2023-01-30T04:43:22.322Z,4.67
2023-01-30T04:45:48.668Z,4.00
2023-01-30T04:48:14.979Z,4.00
2023-01-30T04:50:41.368Z,4.00
2023-01-30T04:53:07.713Z,4.00
2023-01-30T04:55:34.067Z,3.00
2023-01-30T04:58:00.515Z,3.00
2023-01-30T05:03:10.697Z,3.00
2023-01-30T05:05:37.016Z,3.00
2023-01-30T05:08:03.360Z,4.00
2023-01-30T05:10:29.712Z,3.00
2023-01-30T05:12:56.024Z,5.00
2023-01-30T05:18:16.413Z,4.00
2023-01-30T05:20:42.770Z,3.00
2023-01-30T05:23:09.117Z,4.00
2023-01-30T05:25:35.500Z,4.00
2023-01-30T05:28:01.829Z,4.00
2023-01-30T05:33:12.054Z,3.33
2023-01-30T05:35:38.388Z,3.33
2023-01-30T05:38:04.752Z,4.00
2023-01-30T05:40:31.098Z,4.00
2023-01-30T05:42:57.568Z,2.00
2023-01-30T05:48:17.799Z,4.00
2023-01-30T05:50:44.198Z,3.00
2023-01-30T05:53:10.566Z,3.00
2023-01-30T05:55:36.870Z,3.33
2023-01-30T05:58:03.259Z,3.00
2023-01-30T06:03:13.794Z,4.00
2023-01-30T06:05:40.250Z,20.00
2023-01-30T06:08:07.014Z,20.00
2023-01-30T06:10:33.472Z,26.00
2023-01-30T06:12:59.955Z,24.00
2023-01-30T06:18:21.569Z,22.50
2023-01-30T06:20:48.131Z,22.00
2023-01-30T06:23:14.658Z,22.00
2023-01-30T06:25:41.163Z,23.00
2023-01-30T06:28:07.669Z,22.50
2023-01-30T06:33:18.991Z,21.00
2023-01-30T06:35:45.456Z,20.00
2023-01-30T06:38:12.881Z,20.00
2023-01-30T06:40:39.350Z,19.00
2023-01-30T06:43:05.875Z,20.00
2023-01-30T06:48:17.321Z,15.33
2023-01-30T06:50:44.899Z,15.00
2023-01-30T06:53:11.578Z,13.00
2023-01-30T06:55:38.334Z,13.50
2023-01-30T06:58:04.968Z,13.00
2023-01-30T07:03:26.627Z,11.00
2023-01-30T07:05:53.988Z,11.00
2023-01-30T07:08:22.081Z,11.00
2023-01-30T07:10:51.527Z,10.80
2023-01-30T07:13:18.980Z,10.67
2023-01-30T07:18:31.991Z,11.67
2023-01-30T07:20:58.403Z,12.00
2023-01-30T07:23:25.690Z,11.67
2023-01-30T07:25:53.045Z,13.00
2023-01-30T07:28:19.476Z,10.00
2023-01-30T07:30:47.879Z,12.40
2023-01-30T07:33:14.352Z,0.00
2023-01-30T07:35:41.750Z,11.33
2023-01-30T07:38:09.028Z,10.67
2023-01-30T07:40:36.311Z,10.00
2023-01-30T07:43:05.529Z,9.83
2023-01-30T07:45:32.074Z,11.00
2023-01-30T07:47:59.394Z,8.50
2023-01-30T07:50:26.652Z,9.67
2023-01-30T07:52:53.128Z,8.00
2023-01-30T07:55:21.633Z,10.40
2023-01-30T07:57:51.608Z,10.43
2023-01-30T08:00:18.318Z,8.00
2023-01-30T08:02:44.935Z,7.00
2023-01-30T08:05:13.303Z,9.40
2023-01-30T08:07:39.681Z,8.00
2023-01-30T08:10:06.111Z,7.00
2023-01-30T08:12:35.333Z,7.17
2023-01-30T08:15:01.747Z,8.00
2023-01-30T08:17:28.140Z,7.33
2023-01-30T08:19:54.480Z,5.00
2023-01-30T08:22:23.648Z,7.83
2023-01-30T08:24:50.119Z,6.67
2023-01-30T08:27:17.380Z,8.25
2023-01-30T08:29:46.550Z,8.00
2023-01-30T08:32:14.788Z,9.00
2023-01-30T08:34:43.944Z,10.20
2023-01-30T08:37:12.062Z,15.50
2023-01-30T08:39:38.528Z,20.50
2023-01-30T08:42:05.045Z,21.50
2023-01-30T08:44:31.569Z,19.00
2023-01-30T08:46:58.081Z,20.50
2023-01-30T08:52:08.712Z,21.50
2023-01-30T08:54:35.959Z,22.33
2023-01-30T08:57:03.443Z,22.50
2023-01-30T08:59:29.931Z,25.00
2023-01-30T09:01:56.427Z,23.00
2023-01-30T09:07:18.190Z,23.50
2023-01-30T09:09:44.678Z,21.00
2023-01-30T09:12:12.066Z,21.00
2023-01-30T09:14:38.959Z,23.00
2023-01-30T09:17:05.485Z,23.00
2023-01-30T09:22:28.863Z,23.00
2023-01-30T09:24:56.333Z,23.50
2023-01-30T09:27:22.829Z,19.00
2023-01-30T09:29:49.293Z,22.00
2023-01-30T09:32:16.714Z,22.50
2023-01-30T09:37:28.044Z,18.50
2023-01-30T09:39:54.520Z,17.00
2023-01-30T09:42:21.919Z,20.00
2023-01-30T09:44:48.384Z,16.00
2023-01-30T09:47:15.755Z,17.50
2023-01-30T09:52:36.076Z,18.00
2023-01-30T09:55:02.624Z,15.00
2023-01-30T09:57:30.013Z,17.00
2023-01-30T09:59:57.434Z,14.00
2023-01-30T10:02:24.847Z,13.00
2023-01-30T10:07:37.142Z,16.00
2023-01-30T10:10:04.503Z,14.67
2023-01-30T10:12:31.933Z,14.00
2023-01-30T10:14:58.426Z,12.50
2023-01-30T10:17:24.893Z,14.00
2023-01-30T10:22:46.154Z,12.00
2023-01-30T10:25:13.482Z,11.67
2023-01-30T10:27:40.899Z,13.00
2023-01-30T10:30:08.268Z,12.67
2023-01-30T10:32:34.690Z,11.50
2023-01-30T10:37:55.999Z,13.00
2023-01-30T10:40:22.454Z,13.50
2023-01-30T10:42:49.841Z,15.33
2023-01-30T10:45:16.270Z,14.00
2023-01-30T10:47:47.668Z,13.67
2023-01-30T10:52:58.733Z,17.00
2023-01-30T10:55:36.409Z,16.00
2023-01-30T10:58:05.752Z,16.33
2023-01-30T11:00:33.129Z,15.00
2023-01-30T11:03:00.617Z,16.67
2023-01-30T11:08:11.436Z,17.50
2023-01-30T11:10:37.875Z,13.50
2023-01-30T11:13:04.407Z,16.00
2023-01-30T11:15:31.808Z,16.00
2023-01-30T11:18:04.861Z,16.00
2023-01-30T11:23:40.739Z,17.00
2023-01-30T11:26:11.665Z,17.00
2023-01-30T11:28:38.443Z,21.00
2023-01-30T11:31:06.677Z,19.50
2023-01-30T11:33:33.151Z,17.50
2023-01-30T11:38:54.726Z,16.67
2023-01-30T11:41:21.206Z,18.50
2023-01-30T11:43:47.665Z,14.50
2023-01-30T11:46:14.757Z,16.50
2023-01-30T11:49:14.472Z,17.33
2023-01-30T11:54:23.405Z,14.00
2023-01-30T11:56:50.009Z,13.00
2023-01-30T11:59:16.462Z,12.00
2023-01-30T12:01:43.844Z,15.67
2023-01-30T12:04:10.312Z,13.00
2023-01-30T12:09:21.576Z,12.00
2023-01-30T12:11:48.022Z,12.00
2023-01-30T12:14:14.603Z,12.00
2023-01-30T12:16:41.096Z,11.50
2023-01-30T12:19:08.505Z,15.00
2023-01-30T12:24:28.910Z,13.50
2023-01-30T12:26:55.379Z,18.50
2023-01-30T12:29:21.963Z,16.00
2023-01-30T12:31:48.419Z,18.00
2023-01-30T12:34:15.033Z,16.00
2023-01-30T12:39:37.137Z,15.67
2023-01-30T12:42:03.662Z,18.00
2023-01-30T12:44:31.046Z,15.33
2023-01-30T12:46:58.428Z,15.33
2023-01-30T12:49:25.811Z,17.33
2023-01-30T12:54:36.270Z,19.00
2023-01-30T12:57:03.662Z,18.00
2023-01-30T12:59:30.145Z,17.50
2023-01-30T13:01:56.655Z,19.50
2023-01-30T13:04:23.174Z,18.00
2023-01-30T13:09:33.559Z,20.00
2023-01-30T13:12:00.030Z,19.00
2023-01-30T13:14:26.497Z,18.50
2023-01-30T13:16:53.892Z,18.00
2023-01-30T13:19:23.147Z,19.00
2023-01-30T13:24:46.639Z,38.50
2023-01-30T13:27:14.237Z,35.00
2023-01-30T13:29:40.762Z,34.00
2023-01-30T13:32:07.379Z,30.00
2023-01-30T13:34:33.996Z,29.00
2023-01-30T13:39:44.666Z,23.50
2023-01-30T13:42:11.354Z,24.50
2023-01-30T13:44:39.340Z,23.00
2023-01-30T13:47:07.266Z,13.00
2023-01-30T13:49:34.707Z,21.00
2023-01-30T13:52:02.155Z,20.00
2023-01-30T13:54:29.553Z,19.00
2023-01-30T13:56:56.945Z,15.33
2023-01-30T13:59:23.600Z,16.00
2023-01-30T14:01:50.078Z,16.00
2023-01-30T14:04:17.511Z,15.00
2023-01-30T14:06:44.913Z,16.33
2023-01-30T14:09:11.364Z,16.00
2023-01-30T14:11:38.750Z,14.67
2023-01-30T14:14:06.283Z,12.00
2023-01-30T14:16:32.826Z,12.50
2023-01-30T14:19:00.222Z,14.67
2023-01-30T14:21:26.619Z,13.00
2023-01-30T14:23:53.874Z,11.33
2023-01-30T14:26:21.286Z,13.00
2023-01-30T14:28:48.668Z,14.00
2023-01-30T14:31:15.236Z,13.00
2023-01-30T14:33:42.633Z,13.00
2023-01-30T14:36:09.959Z,14.00
2023-01-30T14:38:37.346Z,12.67
2023-01-30T14:41:03.844Z,12.50
2023-01-30T14:43:31.114Z,13.00
2023-01-30T14:45:58.388Z,12.00
2023-01-30T14:48:24.857Z,13.00
2023-01-30T14:50:51.932Z,13.00
2023-01-30T14:53:18.495Z,12.50
2023-01-30T14:55:44.986Z,11.00
2023-01-30T14:58:11.414Z,12.50
2023-01-30T15:00:37.913Z,12.50
2023-01-30T15:03:06.350Z,9.40
2023-01-30T15:05:33.615Z,9.33
2023-01-30T15:08:01.349Z,13.00
2023-01-30T15:13:11.970Z,11.00
2023-01-30T15:15:39.242Z,12.00
2023-01-30T15:18:08.619Z,12.50
2023-01-30T15:20:38.286Z,12.80
2023-01-30T15:23:05.679Z,12.00
2023-01-30T15:28:27.981Z,12.00
2023-01-30T15:30:55.383Z,12.00
2023-01-30T15:33:30.883Z,12.00
2023-01-30T15:35:58.969Z,11.00
2023-01-30T15:38:25.321Z,0.00
2023-01-30T15:43:47.716Z,11.50
2023-01-30T15:46:14.342Z,11.00
2023-01-30T15:48:40.761Z,10.00
2023-01-30T15:51:07.276Z,9.50
2023-01-30T15:53:35.575Z,9.00
2023-01-30T15:58:46.727Z,11.00
2023-01-30T16:01:14.013Z,10.33
2023-01-30T16:03:40.505Z,9.00
2023-01-30T16:06:08.845Z,10.40
2023-01-30T16:08:38.029Z,11.00
2023-01-30T16:13:58.328Z,8.50
2023-01-30T16:16:24.952Z,8.00
2023-01-30T16:18:51.431Z,9.00
2023-01-30T16:21:17.871Z,11.00
2023-01-30T16:23:46.161Z,7.60
2023-01-30T16:28:56.477Z,8.00
2023-01-30T16:31:23.756Z,7.50
2023-01-30T16:33:50.233Z,7.67
2023-01-30T16:36:16.632Z,8.00
2023-01-30T16:38:43.055Z,7.67
2023-01-30T16:43:56.110Z,6.80
2023-01-30T16:46:22.525Z,5.33
2023-01-30T16:48:49.006Z,6.67
2023-01-30T16:51:15.532Z,8.00
2023-01-30T16:53:43.423Z,9.00
2023-01-30T16:58:54.790Z,6.67
2023-01-30T17:01:21.241Z,6.33
2023-01-30T17:03:47.728Z,6.00
2023-01-30T17:06:14.135Z,7.67
2023-01-30T17:08:41.035Z,5.33
2023-01-30T17:13:51.229Z,5.00
2023-01-30T17:16:17.625Z,4.67
2023-01-30T17:18:44.052Z,4.33
2023-01-30T17:21:10.403Z,5.67
2023-01-30T17:23:36.780Z,4.67
2023-01-30T17:28:56.717Z,5.00
2023-01-30T17:31:23.476Z,4.00
2023-01-30T17:33:49.886Z,5.00
2023-01-30T17:36:17.099Z,5.00
2023-01-30T17:38:43.745Z,5.67
2023-01-30T17:43:54.270Z,4.00
2023-01-30T17:46:20.695Z,5.00
2023-01-30T17:48:47.115Z,4.33
2023-01-30T17:51:13.533Z,5.33
2023-01-30T17:53:39.892Z,3.00
2023-01-30T17:59:00.596Z,4.33
2023-01-30T18:01:27.126Z,5.00
2023-01-30T18:03:53.488Z,3.33
2023-01-30T18:06:19.858Z,4.00
2023-01-30T18:08:46.192Z,3.00
2023-01-30T18:11:13.437Z,5.00
2023-01-30T18:13:39.790Z,5.00
2023-01-30T18:16:06.157Z,4.00
2023-01-30T18:18:32.692Z,4.00
2023-01-30T18:20:59.019Z,5.00
2023-01-30T18:23:25.416Z,4.00
2023-01-30T18:25:51.775Z,4.00
2023-01-30T18:28:18.127Z,3.00
2023-01-30T18:30:44.783Z,3.00
2023-01-30T18:33:11.257Z,3.00
2023-01-30T18:35:38.008Z,3.33
2023-01-30T18:38:04.405Z,4.33
2023-01-30T18:40:30.875Z,3.00
2023-01-30T18:42:58.556Z,4.00
2023-01-30T18:45:25.053Z,5.00
2023-01-30T18:47:51.382Z,3.67
2023-01-30T18:50:17.967Z,5.00
2023-01-30T18:52:44.425Z,4.00
2023-01-30T18:55:11.102Z,5.33
2023-01-30T18:57:37.474Z,6.00
2023-01-30T19:00:03.805Z,5.33
2023-01-30T19:02:30.196Z,4.67
2023-01-30T19:04:56.551Z,4.33
2023-01-30T19:07:22.882Z,3.33
2023-01-30T19:09:49.242Z,4.00
2023-01-30T19:12:15.635Z,4.00
2023-01-30T19:17:26.673Z,3.00
2023-01-30T19:19:52.987Z,4.00
2023-01-30T19:22:19.387Z,4.00
2023-01-30T19:24:45.916Z,4.00
2023-01-30T19:27:13.135Z,3.00
2023-01-30T19:32:23.487Z,5.00
2023-01-30T19:34:50.799Z,4.00
2023-01-30T19:37:18.287Z,2.75
2023-01-30T19:39:44.649Z,4.00
2023-01-30T19:42:11.176Z,5.00
2023-01-30T19:47:21.699Z,4.00
2023-01-30T19:49:48.081Z,5.00
2023-01-30T19:52:14.440Z,4.00
2023-01-30T19:54:41.772Z,14.00
2023-01-30T19:57:09.127Z,11.33
2023-01-30T20:02:31.053Z,11.00
2023-01-30T20:04:57.654Z,10.00
2023-01-30T20:07:24.093Z,10.00
2023-01-30T20:09:50.683Z,12.00
2023-01-30T20:12:17.159Z,10.00
2023-01-30T20:17:31.226Z,12.67
2023-01-30T20:19:57.671Z,14.00
2023-01-30T20:22:24.088Z,17.00
2023-01-30T20:24:50.507Z,11.00
2023-01-30T20:27:17.302Z,11.00
2023-01-30T20:32:37.621Z,18.50
2023-01-30T20:35:04.223Z,14.00
2023-01-30T20:37:31.518Z,11.00
2023-01-30T20:39:59.824Z,12.00
2023-01-30T20:42:28.215Z,10.33
2023-01-30T20:47:40.631Z,10.00
2023-01-30T20:50:07.058Z,10.00
2023-01-30T20:52:35.373Z,10.20
2023-01-30T20:55:03.946Z,9.80
2023-01-30T20:57:30.447Z,11.00
2023-01-30T21:02:51.879Z,11.00
2023-01-30T21:05:19.614Z,11.00
2023-01-30T21:07:48.129Z,9.60
2023-01-30T21:10:15.573Z,26.50
2023-01-30T21:12:42.059Z,22.00
2023-01-30T21:17:53.960Z,17.00
2023-01-30T21:20:21.330Z,16.67
2023-01-30T21:22:49.322Z,13.00
2023-01-30T21:25:18.790Z,8.33
2023-01-30T21:27:46.307Z,12.00
2023-01-30T21:33:09.191Z,10.17
2023-01-30T21:35:37.980Z,9.00
2023-01-30T21:38:04.516Z,11.00
2023-01-30T21:40:32.180Z,8.75
2023-01-30T21:43:00.523Z,9.00
2023-01-30T21:48:13.547Z,8.00
2023-01-30T21:50:39.951Z,5.00
2023-01-30T21:53:09.099Z,8.17
2023-01-30T21:55:35.480Z,6.00
2023-01-30T21:58:04.639Z,6.33
2023-01-30T22:03:24.840Z,8.50
2023-01-30T22:05:51.274Z,6.67
2023-01-30T22:08:18.483Z,5.00
2023-01-30T22:10:45.698Z,4.75
2023-01-30T22:13:15.011Z,5.17
2023-01-30T22:18:26.132Z,11.33
2023-01-30T22:20:52.799Z,11.00
2023-01-30T22:23:19.387Z,13.00
2023-01-30T22:25:46.661Z,12.00
2023-01-30T22:28:13.078Z,8.00
2023-01-30T22:30:39.812Z,10.00
2023-01-30T22:33:06.262Z,6.00
2023-01-30T22:35:32.622Z,7.00
2023-01-30T22:37:58.964Z,6.00
2023-01-30T22:40:25.411Z,6.33
2023-01-30T22:42:51.823Z,7.00
2023-01-30T22:45:19.281Z,6.50
2023-01-30T22:47:45.839Z,5.33
2023-01-30T22:50:13.070Z,5.00
2023-01-30T22:52:39.419Z,6.00
2023-01-30T22:55:05.809Z,4.67
2023-01-30T22:57:32.294Z,4.67
2023-01-30T22:59:58.618Z,4.67
2023-01-30T23:02:24.983Z,5.00
2023-01-30T23:04:51.359Z,5.00
2023-01-30T23:07:18.588Z,4.00
2023-01-30T23:09:44.919Z,4.00
2023-01-30T23:12:11.300Z,5.00
2023-01-30T23:14:37.939Z,3.67
2023-01-30T23:17:04.359Z,4.00
2023-01-30T23:19:30.701Z,3.67
2023-01-30T23:21:57.024Z,4.00
2023-01-30T23:24:23.419Z,3.00
2023-01-30T23:26:49.815Z,3.00
2023-01-30T23:29:16.172Z,3.00
2023-01-30T23:31:42.590Z,3.00
2023-01-30T23:36:52.987Z,2.67
2023-01-30T23:39:19.374Z,3.67
2023-01-30T23:41:45.712Z,4.00
2023-01-30T23:44:12.044Z,3.00
2023-01-30T23:46:38.958Z,3.00
2023-01-30T23:51:49.098Z,2.00
2023-01-30T23:54:16.293Z,2.00
2023-01-30T23:56:42.647Z,3.00
2023-01-30T23:59:09.062Z,1.67
